Flight Track Log - Related Links

Times and Time Zones

All times are in EDT time to prevent confusion due to time zone crossing. See the CTL15 flight status page for this flight to view local times or setup timezone preferences in your user account.

Time Position Orientation Groundspeed Altitude Reporting Facility
EDT Latitude Longitude Course Direction KTS MPH feet Rate Location/Type
Fri 08:40:43 PM 39.6086 -84.2003 49° Northeast 139 160 1,600  Level Indianapolis Center
Fri 08:41:26 PM 39.6272 -84.1758 45° Northeast 127 146 2,500 1,137 Climbing Indianapolis Center
Fri 08:42:18 PM 39.6422 -84.1528 50° Northeast 119 137 3,400 1,062 Climbing Indianapolis Center
Fri 08:43:19 PM 39.6622 -84.1244 47° Northeast 113 130 4,500 1,122 Climbing Indianapolis Center
Fri 08:44:21 PM 39.6861 -84.0933 45° Northeast 106 122 5,700 1,024 Climbing Indianapolis Center
Fri 08:45:22 PM 39.7072 -84.0644 46° Northeast 107 123 6,600 923 Climbing Indianapolis Center
Fri 08:46:00 PM 39.7647 -83.9365 49° Northeast  Level FlightAware Approximate
Fri 08:46:18 PM 39.7283 -84.0372 45° Northeast 113 130 7,500  Level Indianapolis Center
Fri 08:47:18 PM 39.7514 -84.0075 45° Northeast 117 135 8,200 677 Climbing Indianapolis Center
Fri 08:48:31 PM 39.7839 -83.9683 43° Northeast 126 145 9,000 415 Climbing Indianapolis Center
Fri 08:49:28 PM 39.8067 -83.9358 48° Northeast 133 153 9,100 52 Climbing Indianapolis Center
Fri 08:50:26 PM 39.8419 -83.8917 44° Northeast 171 197 9,100  Level Indianapolis Center
Fri 08:51:27 PM 39.8769 -83.8472 44° Northeast 176 203 9,100  Level Indianapolis Center
Fri 08:52:22 PM 39.9092 -83.8078 43° Northeast 173 199 9,100  Level Indianapolis Center
Fri 08:53:22 PM 39.9439 -83.7631 45° Northeast 175 201 9,100  Level Indianapolis Center
Fri 08:54:23 PM 39.9786 -83.7186 44° Northeast 173 199 9,100  Level Indianapolis Center
Fri 08:55:24 PM 40.0136 -83.6711 46° Northeast 175 201 9,100  Level Indianapolis Center
Fri 08:56:18 PM 40.0458 -83.6317 43° Northeast 176 203 9,100  Level Indianapolis Center
Fri 08:56:37 PM 40.0536 -83.6225 42° Northeast 176 203 9,100  Level Indianapolis Center
Fri 08:57:13 PM 40.0781 -83.5919 44° Northeast 179 206 9,100  Level Indianapolis Center
Fri 08:57:39 PM 40.0892 -83.5761 47° Northeast 178 205 9,100 -100 Level Indianapolis Center
Fri 08:58:13 PM 40.1128 -83.5472 43° Northeast 174 200 9,000  Descending Indianapolis Center
Fri 08:58:40 PM 40.1236 -83.5308 49° Northeast 174 200 9,100 98 Climbing Indianapolis Center
Fri 08:59:14 PM 40.1453 -83.5022 45° Northeast 173 199 9,100 -98 Level Indianapolis Center
Fri 08:59:41 PM 40.1583 -83.4861 43° Northeast 174 200 9,000  Descending Indianapolis Center
Fri 09:00:09 PM 40.1778 -83.4597 46° Northeast 173 199 9,100 98 Climbing Indianapolis Center
Fri 09:00:42 PM 40.1933 -83.4408 43° Northeast 174 200 9,100  Level Indianapolis Center
Fri 09:01:09 PM 40.2125 -83.4147 46° Northeast 175 201 9,100 -98 Level Indianapolis Center
Fri 09:01:43 PM 40.2275 -83.3956 44° Northeast 173 199 9,000  Descending Indianapolis Center
Fri 09:02:16 PM 40.2492 -83.3672 45° Northeast 174 200 9,100 97 Climbing Indianapolis Center
Fri 09:02:45 PM 40.2625 -83.3503 44° Northeast 174 200 9,100  Level Indianapolis Center
Fri 09:03:17 PM 40.2839 -83.3222 45° Northeast 172 198 9,100  Level Indianapolis Center
Fri 09:03:46 PM 40.3019 -83.2983 45° Northeast 172 198 9,100  Level Indianapolis Center
Fri 09:04:17 PM 40.3183 -83.2772 44° Northeast 171 197 9,100  Level Indianapolis Center
Fri 09:04:47 PM 40.3358 -83.2547 44° Northeast 169 194 9,100 -66 Level Indianapolis Center
Fri 09:05:48 PM 40.3703 -83.2086 46° Northeast 174 200 9,000 -49 Descending Indianapolis Center
Fri 09:06:49 PM 40.4058 -83.1631 44° Northeast 176 203 9,000  Level Indianapolis Center
Fri 09:07:51 PM 40.4403 -83.1181 45° Northeast 174 200 9,000  Level Indianapolis Center
Fri 09:08:52 PM 40.4756 -83.0733 44° Northeast 174 200 9,000  Level Indianapolis Center
Fri 09:09:53 PM 40.5097 -83.0258 47° Northeast 176 203 9,000  Level Indianapolis Center
Fri 09:10:54 PM 40.5464 -82.9803 43° Northeast 175 201 9,000  Level Indianapolis Center
Fri 09:11:56 PM 40.5811 -82.9336 46° Northeast 176 203 9,000  Level Indianapolis Center
Fri 09:12:57 PM 40.6147 -82.8878 46° Northeast 173 199 9,000  Level Indianapolis Center
Fri 09:14:00 PM 40.6472 -82.8464 44° Northeast 169 194 9,000  Level Cleveland Center
Fri 09:15:00 PM 40.6836 -82.7983 45° Northeast 169 194 9,000  Level Cleveland Center
Fri 09:16:00 PM 40.7156 -82.7500 49° Northeast 169 194 9,000  Level Cleveland Center
Fri 09:17:00 PM 40.7456 -82.7072 47° Northeast 164 189 9,000 61 Level Cleveland Center
Fri 09:17:39 PM 40.7689 -82.6858 35° Northeast 167 192 9,100  Climbing Cleveland Center
Fri 09:18:00 PM 40.7819 -82.6672 47° Northeast 164 189 9,000  Descending Cleveland Center
Fri 09:18:40 PM 40.8031 -82.6403 44° Northeast 167 192 9,100  Climbing Cleveland Center
Fri 09:19:00 PM 40.8139 -82.6189 56° Northeast 164 189 9,000  Descending Cleveland Center
Fri 09:19:41 PM 40.8372 -82.5975 35° Northeast 168 193 9,100 100 Climbing Cleveland Center
Fri 09:20:00 PM 40.8481 -82.5786 53° Northeast 169 194 9,100  Level Cleveland Center
Fri 09:20:41 PM 40.8694 -82.5464 49° Northeast 171 197 9,100  Level Cleveland Center
Fri 09:21:00 PM 40.8803 -82.5331 43° Northeast 169 194 9,100  Level Cleveland Center
Fri 09:22:00 PM 40.9183 -82.4928 39° Northeast 169 194 9,100  Level Cleveland Center
Fri 09:23:00 PM 40.9544 -82.4581 36° Northeast 174 200 9,100  Level Cleveland Center
Fri 09:23:49 PM 40.9903 -82.4233 36° Northeast 180 207 9,100  Level Cleveland Center
Fri 09:24:44 PM 41.0264 -82.3858 38° Northeast 180 207 9,100  Level Cleveland Center
Fri 09:25:00 PM 41.0328 -82.3750 52° Northeast 176 203 9,100 -295 Level Cleveland Center
Fri 09:25:45 PM 41.0667 -82.3403 38° Northeast 187 215 8,800 -300 Descending Cleveland Center
Fri 09:26:00 PM 41.0731 -82.3322 44° Northeast 181 208 8,800 -197 Level Cleveland Center
Fri 09:26:46 PM 41.1092 -82.2944 38° Northeast 194 223 8,600 -268 Descending Cleveland Center
Fri 09:27:52 PM 41.1536 -82.2406 42° Northeast 199 229 8,300 -378 Descending Cleveland Center
Fri 09:28:53 PM 41.1961 -82.1919 41° Northeast 197 227 7,800 -344 Descending Cleveland Center
Fri 09:29:54 PM 41.2322 -82.1403 47° Northeast 192 221 7,600 -298 Descending Cleveland Center
Fri 09:30:54 PM 41.2725 -82.0889 44° Northeast 192 221 7,200 -425 Descending Cleveland Center
Fri 09:32:01 PM 41.3108 -82.0317 48° Northeast 193 222 6,700 -496 Descending Cleveland Center
Fri 09:32:55 PM 41.3428 -81.9825 49° Northeast 196 226 6,200 -574 Descending Cleveland Center
Fri 09:33:56 PM 41.3789 -81.9225 51° Northeast 199 229 5,600 -836 Descending Cleveland Center
Fri 09:34:57 PM 41.4192 -81.8653 47° Northeast 206 237 4,500 -1,289 Descending Cleveland Center
Fri 09:35:57 PM 41.4553 -81.8106 49° Northeast 212 244 3,000 -1,388 Descending Cleveland Center
Fri 09:36:58 PM 41.4828 -81.7556 56° Northeast 175 201 1,700 -992 Descending Cleveland Center
Fri 09:37:58 PM 41.5042 -81.7144 55° Northeast 116 133 1,000 -700 Descending Cleveland Center
Fri 09:39:00 PM 41.5175 -81.6833 48° Northeast  Level Estimated
Fri 09:46:00 PM 41.5175 -81.6833 48° Northeast  Level Estimated
Fri 09:47:00 PM 41.5175 -81.6833 48° Northeast  Level Estimated
Fri 09:48:00 PM 41.5175 -81.6833 48° Northeast  Level Estimated
Fri 09:49:00 PM 41.5175 -81.6833 48° Northeast  Level Estimated
Fri 09:50:00 PM 41.5175 -81.6833 48° Northeast  Level Estimated

Login

Don't have an account? Register now (free) for customized features, flight alerts, and more!